This is the latest recevied weather packets stored in our database for station/object ALAKES. If no packets are shown the sender has not sent any weather packets the latest 10 day(s).
| Time | Temp. | Humidity | Pressure | Rain* | Wind** | Luminosity | Snow |
|---|---|---|---|---|---|---|---|
| 1788065658 | -0.56° C | 94% | - | 0 mm | - | - | - |
| 1788065028 | -0.56° C | 93% | - | 0 mm | - | - | - |
| 1788064402 | -0.56° C | 92% | - | 0 mm | - | - | - |
| 1788063869 | 0° C | 90% | - | 0 mm | - | - | - |
| 1788063778 | 0° C | 90% | - | 0 mm | - | - | - |
| 1788063158 | 270° C | - | - | - | - | - | - |
| 1788062536 | -17.78° C | - | 0 hPa | - | - | - | - |
| 1788061912 | 0° C | 90% | - | 0 mm | - | - | - |
| 1788061326 | 0.56° C | 89% | - | 0 mm | - | - | - |
| 1788061294 | 0.56° C | 89% | - | 0 mm | - | - | - |
| 1788060677 | 0.56° C | 89% | - | 0 mm | - | - | - |
| 1788060055 | 1.11° C | 86% | - | 0 mm | - | - | - |
| 1788059433 | 1.11° C | 84% | - | 0 mm | - | - | - |
| 1788058807 | 1.67° C | 81% | - | 0 mm | - | - | - |
| 1788058186 | 1.67° C | 79% | - | 0 mm | - | - | - |
| 1788057570 | 2.22° C | 76% | - | 0 mm | - | - | - |
| 1788056932 | 2.78° C | 74% | - | 0 mm | - | - | - |
| 1788056302 | 3.33° C | 72% | - | 0 mm | - | - | - |
| 1788055680 | 3.33° C | 71% | - | 0 mm | - | - | - |
| 1788055042 | 3.89° C | 67% | - | 0 mm | - | - | - |
| 1788054661 | 4.44° C | 63% | - | 0 mm | - | - | - |
| 1788054420 | 4.44° C | 63% | - | 0 mm | - | - | - |
| 1788053788 | 4.44° C | 60% | - | 0 mm | - | - | - |
| 1788053162 | 4.44° C | 55% | - | 0 mm | - | - | - |
| 1788052539 | 5° C | 50% | - | 0 mm | - | - | - |
* Rain latest 24 hours (hover to see other rain measurements)
** Current wind speed in m/s (hover to see current wind gust speed)